createdAt,value
2018-04-10T00:02:04.153Z,13.32
2018-04-10T00:07:54.784Z,13.2
2018-04-10T00:13:45.471Z,13.2
2018-04-10T00:19:36.166Z,16
2018-04-10T00:25:26.841Z,17.9
2018-04-10T00:31:17.480Z,16.16
2018-04-10T00:37:08.138Z,16.14
2018-04-10T00:42:58.882Z,15.91
2018-04-10T00:48:49.470Z,15.73
2018-04-10T00:54:40.174Z,16.22
2018-04-10T01:00:30.893Z,14.82
2018-04-10T01:06:21.529Z,15.77
2018-04-10T01:12:12.162Z,14.48
2018-04-10T01:18:02.831Z,13.82
2018-04-10T01:23:53.498Z,18.48
2018-04-10T01:29:44.179Z,18.11
2018-04-10T01:35:34.835Z,18.91
2018-04-10T01:41:25.517Z,19.03
2018-04-10T01:47:16.145Z,17.24
2018-04-10T01:53:06.841Z,18.49
2018-04-10T01:58:57.496Z,17.38
2018-04-10T02:04:48.126Z,18.34
2018-04-10T02:16:29.488Z,18.79
2018-04-10T02:22:20.155Z,19.6
2018-04-10T02:28:10.792Z,19.57
2018-04-10T02:34:01.454Z,18.79
2018-04-10T02:39:52.126Z,19.18
2018-04-10T02:45:42.782Z,20.21
2018-04-10T02:51:33.454Z,18.43
2018-04-10T02:57:24.133Z,18.44
2018-04-10T03:03:14.845Z,20.09
2018-04-10T03:09:05.488Z,21.96
2018-04-10T03:14:56.089Z,21.91
2018-04-10T03:20:46.795Z,19.4
2018-04-10T03:26:37.475Z,20.48
2018-04-10T03:32:28.156Z,19.56
2018-04-10T03:38:18.828Z,15.01
2018-04-10T03:44:09.410Z,15.65
2018-04-10T03:50:00.090Z,16.67
2018-04-10T03:55:50.766Z,17.36
2018-04-10T04:01:41.460Z,20.28
2018-04-10T04:07:32.092Z,19.3
2018-04-10T04:13:22.739Z,20.83
2018-04-10T04:19:13.407Z,20.68
2018-04-10T04:25:04.095Z,19.91
2018-04-10T04:30:54.770Z,20.03
2018-04-10T04:36:45.452Z,19.23
2018-04-10T04:42:36.047Z,19.1
2018-04-10T04:48:26.722Z,17.75
2018-04-10T04:54:17.404Z,12.87
2018-04-10T05:00:08.059Z,13.1
2018-04-10T05:05:58.684Z,11.86
2018-04-10T05:11:49.375Z,10.34
2018-04-10T05:17:40.003Z,9.64
2018-04-10T05:23:30.720Z,9.4
2018-04-10T05:29:21.391Z,10.38
2018-04-10T05:35:12.044Z,12.39
2018-04-10T05:41:02.724Z,12.98
2018-04-10T05:46:53.363Z,11.21
2018-04-10T05:52:44.004Z,10.74
2018-04-10T05:58:34.694Z,11.04
2018-04-10T06:04:25.374Z,11.75
2018-04-10T06:10:16.041Z,11.68
2018-04-10T06:16:06.698Z,12.29
2018-04-10T06:21:57.362Z,11.46
2018-04-10T06:27:48.063Z,11.66
2018-04-10T06:33:38.749Z,9.95
2018-04-10T06:39:29.393Z,9.04
2018-04-10T06:45:20.089Z,11.31
2018-04-10T06:51:10.759Z,9.75
2018-04-10T06:57:01.403Z,8.93
2018-04-10T07:02:52.062Z,9.77
2018-04-10T07:08:42.726Z,11.98
2018-04-10T07:14:33.405Z,10.7
2018-04-10T07:20:24.010Z,10.9
2018-04-10T07:26:14.598Z,9.04
2018-04-10T07:32:05.227Z,7.62
2018-04-10T07:37:55.796Z,5.57
2018-04-10T07:43:46.428Z,6.48
2018-04-10T07:49:37.002Z,6.6
2018-04-10T07:55:27.615Z,6.19
2018-04-10T08:01:18.209Z,5.82
2018-04-10T08:07:08.915Z,5.31
2018-04-10T08:12:59.434Z,5.91
2018-04-10T08:18:50.039Z,5.69
2018-04-10T08:24:40.643Z,5.51
2018-04-10T08:30:31.251Z,5.57
2018-04-10T08:36:21.829Z,6.1
2018-04-10T08:42:12.455Z,6.71
2018-04-10T08:48:03.071Z,5.54
2018-04-10T08:53:53.674Z,5.76
2018-04-10T08:59:44.290Z,6.73
2018-04-10T09:05:34.924Z,5.68
2018-04-10T09:11:25.512Z,5.76
2018-04-10T09:17:16.116Z,4.97
2018-04-10T09:23:06.703Z,5.04
2018-04-10T09:28:57.314Z,5.54
2018-04-10T09:34:47.946Z,4.79
2018-04-10T09:40:38.570Z,4.95
2018-04-10T09:46:29.150Z,5.57
2018-04-10T09:52:19.761Z,4.47
2018-04-10T09:58:10.370Z,4.18
2018-04-10T10:05:04.119Z,4.47
2018-04-10T10:09:51.614Z,4.91
2018-04-10T10:15:42.248Z,4.66
2018-04-10T10:21:32.815Z,5.03
2018-04-10T10:27:23.415Z,4.15
2018-04-10T10:33:14.027Z,4.79
2018-04-10T10:39:04.661Z,6.36
2018-04-10T10:44:55.244Z,4.9
2018-04-10T10:50:45.897Z,4.36
2018-04-10T10:56:36.489Z,5.23
2018-04-10T11:02:27.155Z,4.67
2018-04-10T11:08:17.715Z,3.86
2018-04-10T11:14:08.327Z,5.28
2018-04-10T11:19:58.909Z,4.77
2018-04-10T11:25:49.569Z,7.82
2018-04-10T11:31:40.152Z,8.79
2018-04-10T11:37:30.767Z,6.92
2018-04-10T11:43:21.372Z,6.03
2018-04-10T11:49:12.038Z,5.81
2018-04-10T11:55:02.566Z,6.92
2018-04-10T12:00:53.204Z,6.18
2018-04-10T12:06:43.761Z,6.35
2018-04-10T12:12:34.415Z,5.83
2018-04-10T12:18:25.039Z,6.25
2018-04-10T12:24:15.652Z,5.52
2018-04-10T12:30:06.135Z,6.53
2018-04-10T12:35:56.705Z,7.18
2018-04-10T12:41:47.339Z,7.46
2018-04-10T12:47:37.959Z,7.14
2018-04-10T12:53:28.506Z,7.01
2018-04-10T12:59:19.084Z,7.51
2018-04-10T13:05:09.694Z,9.02
2018-04-10T13:11:00.292Z,10.04
2018-04-10T13:16:50.899Z,10.76
2018-04-10T13:22:41.453Z,13.03
2018-04-10T13:28:32.066Z,9.95
2018-04-10T13:34:22.641Z,20
2018-04-10T13:40:13.288Z,11.34
2018-04-10T13:46:03.834Z,12.66
2018-04-10T13:51:54.440Z,26.64
2018-04-10T13:57:45.031Z,28.69
2018-04-10T14:03:35.675Z,20.8
2018-04-10T14:09:26.212Z,20.22
2018-04-10T14:15:16.830Z,20.07
2018-04-10T14:21:07.420Z,11.04
2018-04-10T14:26:58.046Z,11.01
2018-04-10T14:32:48.640Z,9.12
2018-04-10T14:38:39.205Z,7.08
2018-04-10T14:44:29.791Z,9.94
2018-04-10T14:50:20.389Z,26.27
2018-04-10T14:56:10.977Z,26.38
2018-04-10T15:02:01.559Z,8.93
2018-04-10T15:07:52.236Z,6.24
2018-04-10T15:13:42.985Z,4.94
2018-04-10T15:19:33.589Z,3.95
2018-04-10T15:25:24.297Z,3.7
2018-04-10T15:31:14.942Z,3.95
2018-04-10T15:37:05.647Z,3.53
2018-04-10T15:42:56.327Z,2.9
2018-04-10T15:48:47.033Z,3
2018-04-10T15:54:37.670Z,3.54
2018-04-10T16:00:28.348Z,3.33
2018-04-10T16:06:19.009Z,4.03
2018-04-10T16:12:09.674Z,3.55
2018-04-10T16:18:00.360Z,3.62
2018-04-10T16:23:51.003Z,4.1
2018-04-10T16:29:41.753Z,4.58
2018-04-10T16:35:32.424Z,3.72
2018-04-10T16:41:23.116Z,5.79
2018-04-10T16:47:13.724Z,19.71
2018-04-10T16:53:04.416Z,12.06
2018-04-10T16:58:55.085Z,9.85
2018-04-10T17:04:45.756Z,8.44
2018-04-10T17:10:36.452Z,5.66
2018-04-10T17:16:27.114Z,5.59
2018-04-10T17:22:17.778Z,4.01
2018-04-10T17:28:08.404Z,3.83
2018-04-10T17:33:59.076Z,3.91
2018-04-10T17:39:49.802Z,4.02
2018-04-10T17:45:40.405Z,4.68
2018-04-10T17:51:31.096Z,41.35
2018-04-10T17:57:21.738Z,7.29
2018-04-10T18:03:12.418Z,7.56
2018-04-10T18:09:03.151Z,7.05
2018-04-10T18:14:53.724Z,8.16
2018-04-10T18:20:44.498Z,7.47
2018-04-10T18:26:35.049Z,8.54
2018-04-10T18:32:25.739Z,7.43
2018-04-10T18:38:16.423Z,8.91
2018-04-10T18:44:07.073Z,6.59
2018-04-10T18:49:57.750Z,5.71
2018-04-10T18:55:48.381Z,5.59
2018-04-10T19:01:39.072Z,5.05
2018-04-10T19:07:29.770Z,6.61
2018-04-10T19:13:20.414Z,7.62
2018-04-10T19:19:11.056Z,10.42
2018-04-10T19:25:01.718Z,13.29
2018-04-10T19:30:52.493Z,13.48
2018-04-10T19:36:43.064Z,16.14
2018-04-10T19:42:33.770Z,14.71
2018-04-10T19:48:24.481Z,15.41
2018-04-10T19:54:15.079Z,16.14
2018-04-10T20:00:05.791Z,15.68
2018-04-10T20:05:56.422Z,10.6
2018-04-10T20:11:47.044Z,10.76
2018-04-10T20:17:37.740Z,10.72
2018-04-10T20:23:28.444Z,12.38
2018-04-10T20:29:19.090Z,13.78
2018-04-10T20:35:09.762Z,14.56
2018-04-10T20:41:00.392Z,13.78
2018-04-10T20:46:51.085Z,14.44
2018-04-10T20:52:41.705Z,13.89
2018-04-10T20:58:32.393Z,15.61
2018-04-10T21:04:23.042Z,16.49
2018-04-10T21:10:13.696Z,17.36
2018-04-10T21:16:04.423Z,17.72
2018-04-10T21:21:54.993Z,17.02
2018-04-10T21:27:45.674Z,10.49
2018-04-10T21:33:36.325Z,8.51
2018-04-10T21:39:27.028Z,9.11
2018-04-10T21:45:17.675Z,10.28
2018-04-10T21:51:08.297Z,9.93
2018-04-10T21:56:58.952Z,12.59
2018-04-10T22:02:49.618Z,12.88
2018-04-10T22:08:40.293Z,13.81
2018-04-10T22:14:30.937Z,13.59
2018-04-10T22:20:21.602Z,23.79
2018-04-10T22:26:12.235Z,14.77
2018-04-10T22:32:02.929Z,15.54
2018-04-10T22:37:53.546Z,16.93
2018-04-10T22:43:44.199Z,15.32
2018-04-10T22:49:34.883Z,16.5
2018-04-10T22:55:25.501Z,14.66
2018-04-10T23:01:16.230Z,13.69
2018-04-10T23:07:06.865Z,15.62
2018-04-10T23:12:57.473Z,14.26
2018-04-10T23:18:48.170Z,16.41
2018-04-10T23:24:38.871Z,17.61
2018-04-10T23:30:29.474Z,20.37
2018-04-10T23:36:20.132Z,20.03
2018-04-10T23:42:10.768Z,19.31
2018-04-10T23:48:01.429Z,22.2
2018-04-10T23:53:52.074Z,24.92
2018-04-10T23:59:42.709Z,25.25
